Eddy, TX

1:09 AM CDT on June 02, 2015 (GMT -0500)
Pandemonium Farms | | Change Station
CLOSE
Current Station
Personal Weather Station
Location: Moody, TX
Elevation: 837 ft
Nearby Weather Stations

Elev 837 ft 31.29 °N, 97.31 °W | Updated 12 minutes ago

Clear
Clear
71.6 °F
Feels Like 75 °F
N
2.2
Wind Variable Wind from East

Today
High -- | Low -- °F
--% Chance of Precip.
Yesterday
High -- | Low -- °F
Precip. -- in
6:25 AM 8:29 PM
Full, 100% visible
Pressure 30.04 in
Visibility 10.0 miles
Clouds Clear
Heat Index 75 °F
Dew Point 59 °F
Humidity 65%
Rainfall 0.00 in
Snow Depth Not available.
UV 0 out of 12
Pollen 5.30 out of 12
Air Quality Not available.
Flu Activity Local Activity
METAR KPWG 020555Z AUTO 13005KT 10SM CLR 22/18 A3004 RMK AO1 10290 20220 403100160 52003

More Conditions Fewer Conditions

Pressure 30.04 in
Visibility 10.0 miles
Clouds Clear
Heat Index 75 °F
Dew Point 59 °F
Humidity 65%
Rainfall 0.00 in
Snow Depth Not available.
UV 0 out of 12
Pollen 5.30 out of 12
Air Quality Not available.
Flu Activity Local Activity
METAR KPWG 020555Z AUTO 13005KT 10SM CLR 22/18 A3004 RMK AO1 10290 20220 403100160 52003

More Conditions Fewer Conditions

10-Day Weather Forecast

Almanac

Astronomy

Jun. 02, 2015 Rise Set
Actual Time
Civil Twilight
Nautical Twilight
Astronomical Twilight
Moon
Length of Visible Light
Length of Day
Tomorrow will be .
, % of the Moon is Illuminated

Today's Extremes

State Highs State Lows

Community

WunderPhotos

Upload Photos

1,825,922 photos uploaded!

WunderBlogs® & News

Nearby

Air Quality

  Air Quality AQ Index Pollutant
Not available.

Snow Depth

Station Depth Elevation

Earthquake Activity

City Distance Mag. Time & Date
Minimum magnitude displayed is 2.5.

Coastal Water Temperatures

Place Temperature

Stations

Nearby Weather Stations

Station Location Temp. Windchill Dew Point Humidity Wind Precip. Elev Updated Type